createdAt,value
2023-10-26T00:04:58.639Z,13
2023-10-26T00:09:58.394Z,13
2023-10-26T00:14:58.271Z,13
2023-10-26T00:19:58.499Z,13
2023-10-26T00:24:58.171Z,13
2023-10-26T00:29:58.357Z,13
2023-10-26T00:34:58.339Z,12
2023-10-26T00:39:58.478Z,13
2023-10-26T00:44:58.505Z,13
2023-10-26T00:49:58.831Z,13
2023-10-26T00:54:58.238Z,13
2023-10-26T00:59:58.145Z,13
2023-10-26T01:04:58.414Z,13
2023-10-26T01:09:58.200Z,13
2023-10-26T01:15:00.857Z,14
2023-10-26T01:19:58.592Z,14
2023-10-26T01:24:58.245Z,14
2023-10-26T01:29:58.332Z,14
2023-10-26T01:34:58.342Z,15
2023-10-26T01:39:58.285Z,15
2023-10-26T01:44:58.208Z,15
2023-10-26T01:49:58.180Z,15
2023-10-26T01:54:58.250Z,15
2023-10-26T01:59:58.454Z,15
2023-10-26T02:04:58.274Z,15
2023-10-26T02:09:58.162Z,16
2023-10-26T02:14:58.375Z,16
2023-10-26T02:19:58.349Z,16
2023-10-26T02:24:58.163Z,16
2023-10-26T02:29:58.404Z,16
2023-10-26T02:34:58.235Z,16
2023-10-26T02:39:58.079Z,16
2023-10-26T02:44:58.475Z,16
2023-10-26T02:49:58.186Z,16
2023-10-26T02:54:58.263Z,16
2023-10-26T02:59:58.356Z,16
2023-10-26T03:04:58.075Z,15
2023-10-26T03:09:58.703Z,16
2023-10-26T03:14:58.431Z,16
2023-10-26T03:19:58.297Z,15
2023-10-26T03:24:58.304Z,15
2023-10-26T03:29:58.248Z,15
2023-10-26T03:34:58.268Z,15
2023-10-26T03:39:58.094Z,15
2023-10-26T03:44:58.351Z,15
2023-10-26T03:49:58.415Z,15
2023-10-26T03:54:58.299Z,16
2023-10-26T03:59:58.209Z,16
2023-10-26T04:04:58.035Z,15
2023-10-26T04:09:58.082Z,15
2023-10-26T04:14:58.281Z,15
2023-10-26T04:19:58.005Z,15
2023-10-26T04:24:58.344Z,15
2023-10-26T04:29:58.389Z,15
2023-10-26T04:34:58.180Z,15
2023-10-26T04:39:58.129Z,15
2023-10-26T04:44:58.078Z,15
2023-10-26T04:49:58.202Z,16
2023-10-26T04:54:58.220Z,16
2023-10-26T04:59:58.241Z,16
2023-10-26T05:04:58.456Z,17
2023-10-26T05:09:59.052Z,17
2023-10-26T05:14:58.051Z,17
2023-10-26T05:19:58.289Z,17
2023-10-26T05:24:58.239Z,17
2023-10-26T05:29:57.979Z,16
2023-10-26T05:34:58.244Z,16
2023-10-26T05:39:58.307Z,16
2023-10-26T05:44:58.238Z,16
2023-10-26T05:49:57.944Z,16
2023-10-26T05:54:57.968Z,16
2023-10-26T05:59:58.494Z,16
2023-10-26T06:04:57.977Z,16
2023-10-26T06:09:58.185Z,16
2023-10-26T06:14:58.224Z,15
2023-10-26T06:19:58.249Z,15
2023-10-26T06:24:58.383Z,15
2023-10-26T06:29:58.320Z,16
2023-10-26T06:34:58.162Z,16
2023-10-26T06:39:58.139Z,17
2023-10-26T06:44:57.871Z,17
2023-10-26T06:49:58.413Z,17
2023-10-26T06:54:58.002Z,18
2023-10-26T06:59:58.693Z,18
2023-10-26T07:04:58.988Z,18
2023-10-26T07:09:57.933Z,18
2023-10-26T07:14:58.109Z,18
2023-10-26T07:19:57.944Z,18
2023-10-26T07:24:58.103Z,18
2023-10-26T07:29:57.826Z,18
2023-10-26T07:34:57.961Z,18
2023-10-26T07:40:27.559Z,17
2023-10-26T07:44:58.031Z,17
2023-10-26T07:49:58.223Z,17
2023-10-26T07:54:57.915Z,17
2023-10-26T07:59:58.199Z,16
2023-10-26T08:04:58.048Z,16
2023-10-26T08:09:58.273Z,15
2023-10-26T08:16:10.813Z,15
2023-10-26T08:20:05.972Z,15
2023-10-26T08:24:57.911Z,15
2023-10-26T08:29:57.992Z,15
2023-10-26T08:34:58.086Z,14
2023-10-26T08:39:57.963Z,14
2023-10-26T08:44:59.339Z,14
2023-10-26T08:50:14.900Z,14
2023-10-26T08:54:58.162Z,14
2023-10-26T08:59:58.024Z,13
2023-10-26T09:04:58.055Z,14
2023-10-26T09:09:57.863Z,13
2023-10-26T09:14:59.372Z,13
2023-10-26T09:19:57.934Z,13
2023-10-26T09:24:57.926Z,13
2023-10-26T09:29:57.863Z,13
2023-10-26T09:34:57.955Z,13
2023-10-26T09:40:14.763Z,13
2023-10-26T09:44:58.042Z,13
2023-10-26T09:49:58.478Z,13
2023-10-26T09:54:57.929Z,12
2023-10-26T10:00:00.552Z,13
2023-10-26T10:04:57.759Z,13
2023-10-26T10:10:06.639Z,13
2023-10-26T10:15:05.287Z,14
2023-10-26T10:19:58.295Z,14
2023-10-26T10:24:58.082Z,14
2023-10-26T10:29:57.760Z,14
2023-10-26T10:34:57.849Z,14
2023-10-26T10:40:13.968Z,15
2023-10-26T10:44:57.784Z,15
2023-10-26T10:50:12.845Z,15
2023-10-26T10:55:05.234Z,15
2023-10-26T10:59:57.653Z,15
2023-10-26T11:05:06.109Z,15
2023-10-26T11:09:58.641Z,15
2023-10-26T11:14:58.019Z,15
2023-10-26T11:19:57.989Z,15
2023-10-26T11:24:57.903Z,15
2023-10-26T11:29:57.695Z,15
2023-10-26T11:34:57.756Z,15
2023-10-26T11:39:57.944Z,15
2023-10-26T11:44:57.983Z,15
2023-10-26T11:49:57.968Z,15
2023-10-26T11:54:57.989Z,15
2023-10-26T11:59:59.271Z,15
2023-10-26T12:04:58.045Z,15
2023-10-26T12:09:57.883Z,15
2023-10-26T12:14:58.044Z,15
2023-10-26T12:19:57.690Z,14
2023-10-26T12:24:57.924Z,14
2023-10-26T12:29:57.729Z,14
2023-10-26T12:34:57.692Z,14
2023-10-26T12:39:58.321Z,14
2023-10-26T12:44:58.203Z,14
2023-10-26T12:49:57.695Z,14
2023-10-26T12:54:57.950Z,14
2023-10-26T12:59:57.679Z,14
2023-10-26T13:04:57.845Z,14
2023-10-26T13:09:57.626Z,14
2023-10-26T13:14:58.114Z,14
2023-10-26T13:19:57.622Z,14
2023-10-26T13:24:57.863Z,14
2023-10-26T13:29:57.825Z,14
2023-10-26T13:34:57.836Z,14
2023-10-26T13:39:57.717Z,14
2023-10-26T13:44:57.797Z,14
2023-10-26T13:49:58.151Z,14
2023-10-26T13:54:57.916Z,14
2023-10-26T13:59:57.811Z,14
2023-10-26T14:04:57.916Z,15
2023-10-26T14:09:57.833Z,14
2023-10-26T14:14:57.719Z,15
2023-10-26T14:19:57.604Z,15
2023-10-26T14:24:57.941Z,15
2023-10-26T14:29:57.721Z,15
2023-10-26T14:34:57.767Z,15
2023-10-26T14:39:57.860Z,15
2023-10-26T14:44:57.746Z,15
2023-10-26T14:49:57.713Z,15
2023-10-26T14:54:57.516Z,15
2023-10-26T14:59:58.083Z,15
2023-10-26T15:04:58.015Z,16
2023-10-26T15:10:20.954Z,16
2023-10-26T15:14:57.674Z,15
2023-10-26T15:19:57.844Z,16
2023-10-26T15:24:57.647Z,15
2023-10-26T15:29:57.692Z,15
2023-10-26T15:34:58.028Z,15
2023-10-26T15:39:57.655Z,15
2023-10-26T15:44:57.542Z,15
2023-10-26T15:49:59.359Z,15
2023-10-26T15:54:57.738Z,15
2023-10-26T15:59:57.624Z,14
2023-10-26T16:04:57.556Z,14
2023-10-26T16:09:57.646Z,14
2023-10-26T16:14:57.662Z,14
2023-10-26T16:19:57.689Z,14
2023-10-26T16:24:57.965Z,14
2023-10-26T16:29:57.506Z,14
2023-10-26T16:34:57.554Z,14
2023-10-26T16:39:57.445Z,14
2023-10-26T16:44:57.602Z,14
2023-10-26T16:49:57.429Z,14
2023-10-26T16:54:57.709Z,14
2023-10-26T16:59:57.854Z,14
2023-10-26T17:04:57.485Z,14
2023-10-26T17:09:57.678Z,15
2023-10-26T17:14:57.779Z,15
2023-10-26T17:19:57.494Z,14
2023-10-26T17:24:57.705Z,14
2023-10-26T17:29:57.515Z,14
2023-10-26T17:34:57.636Z,14
2023-10-26T17:39:57.664Z,14
2023-10-26T17:44:57.655Z,14
2023-10-26T17:49:57.571Z,14
2023-10-26T17:54:58.720Z,15
2023-10-26T17:59:57.573Z,15
2023-10-26T18:04:57.425Z,15
2023-10-26T18:09:57.676Z,15
2023-10-26T18:14:57.705Z,15
2023-10-26T18:19:57.470Z,15
2023-10-26T18:24:57.542Z,15
2023-10-26T18:29:57.817Z,15
2023-10-26T18:34:57.848Z,16
2023-10-26T18:39:57.516Z,16
2023-10-26T18:44:57.528Z,16
2023-10-26T18:49:57.534Z,16
2023-10-26T18:54:57.401Z,16
2023-10-26T18:59:57.593Z,16
2023-10-26T19:04:57.900Z,16
2023-10-26T19:09:57.409Z,16
2023-10-26T19:14:57.853Z,16
2023-10-26T19:19:57.553Z,16
2023-10-26T19:24:57.497Z,16
2023-10-26T19:29:57.482Z,16
2023-10-26T19:34:57.345Z,17
2023-10-26T19:39:57.564Z,17
2023-10-26T19:44:57.641Z,17
2023-10-26T19:49:57.497Z,18
2023-10-26T19:54:57.509Z,18
2023-10-26T19:59:57.644Z,18
2023-10-26T20:04:57.773Z,18
2023-10-26T20:09:57.519Z,19
2023-10-26T20:14:57.340Z,19
2023-10-26T20:19:57.854Z,19
2023-10-26T20:24:57.568Z,19
2023-10-26T20:29:57.537Z,19
2023-10-26T20:34:57.549Z,19
2023-10-26T20:39:57.650Z,20
2023-10-26T20:44:57.253Z,20
2023-10-26T20:49:57.277Z,20
2023-10-26T20:54:57.812Z,21
2023-10-26T20:59:57.713Z,21
2023-10-26T21:04:57.297Z,21
2023-10-26T21:09:57.382Z,21
2023-10-26T21:14:57.297Z,21
2023-10-26T21:19:57.799Z,22
2023-10-26T21:24:57.445Z,22
2023-10-26T21:29:57.739Z,22
2023-10-26T21:34:57.502Z,22
2023-10-26T21:39:57.376Z,22
2023-10-26T21:44:57.381Z,22
2023-10-26T21:49:57.760Z,23
2023-10-26T21:54:57.576Z,23
2023-10-26T21:59:57.476Z,23
2023-10-26T22:04:57.467Z,23
2023-10-26T22:09:57.736Z,23
2023-10-26T22:14:57.718Z,23
2023-10-26T22:19:57.324Z,23
2023-10-26T22:24:57.847Z,24
2023-10-26T22:29:57.339Z,24
2023-10-26T22:34:57.399Z,24
2023-10-26T22:39:57.574Z,24
2023-10-26T22:44:57.414Z,24
2023-10-26T22:49:57.850Z,25
2023-10-26T22:54:59.751Z,25
2023-10-26T22:59:57.433Z,25
2023-10-26T23:04:57.378Z,25
2023-10-26T23:09:57.630Z,25
2023-10-26T23:14:57.347Z,26
2023-10-26T23:19:57.739Z,26
2023-10-26T23:24:57.316Z,26
2023-10-26T23:29:57.418Z,26
2023-10-26T23:34:57.228Z,26
2023-10-26T23:39:57.256Z,26
2023-10-26T23:44:57.523Z,26
2023-10-26T23:49:57.451Z,26
2023-10-26T23:54:57.504Z,27
2023-10-26T23:59:57.319Z,27
